DAD weather

Da Nang International Airport
Da Nang, Da Nang Municipality, Vietnam

Public forecast

Using degrees Celsius for public forecast. Weather courtesy of forecast.io.

Current aviation weather report (METAR) for Da Nang International Airport

Retrieved 2019/10/22 12:30 UTC (4 minutes ago):

VVDN 221230Z 15004KT 8000 SCT013 28/23 Q1011 NOSIG

Aviation forecast (TAF) for Da Nang International Airport

Retrieved 2019/10/22 12:36 UTC (0 seconds ago):

TAF VVDN 221100Z 2212/2312 22006KT 8000 SCT013 BECMG 2221/2222 4000 BR BECMG 2300/2301 7000 NSW BECMG 2304/2305 05010KT